AirNav   Air Wisconsin Up To $57,000 Bonus
 
 1477 users online  

PS16 Holy Redeemer Hospital Heliport
Philadelphia, Pennsylvania, USA

GOING TO PHILADELPHIA?


FAA INFORMATION EFFECTIVE 07 NOVEMBER 2019

Location

FAA Identifier: PS16
Lat/Long: 40-06-42.8000N 075-04-52.8000W
40-06.713333N 075-04.880000W
40.1118889,-75.0813333
(estimated)
Elevation: 200 ft. / 61 m (estimated)
Variation: 12W (1985)
From city: 10 miles NE of PHILADELPHIA, PA
Time zone: UTC -5 (UTC -4 during Daylight Saving Time)
Zip code: 19046

Heliport Operations

Heliport use: Private use, MEDICAL USE.
Activation date: 06/1983
Control tower: no
ARTCC: NEW YORK CENTER
FSS: WILLIAMSPORT FLIGHT SERVICE STATION
Attendance: CONTINUOUS
Wind indicator: yes
Segmented circle: no

Heliport Communications

WX ASOS at PNE (4 nm SE): PHONE 215-677-0146
WX AWOS-3 at LOM (9 nm W): 118.925 (215-646-1068)
WX ASOS at DYL (13 nm N): 118.875 (215-345-0392)
WX ASOS at VAY (15 nm SE): 119.325 (609-267-1176)
WX ASOS at TTN (16 nm NE): 126.775 (609-538-8690)
WX ASOS at PHL (16 nm SW): PHONE 215-492-9617
WX AWOS-3 at CKZ (19 nm NW): 126.325 (215-257-7291)

Nearby radio navigation aids

VOR radial/distance  VOR name  Freq  Var
ARDr233/11.6YARDLEY VOR/DME108.2010W
PTWr116/22.9POTTSTOWN VORTAC116.5009W
GXUr297/23.1MC GUIRE VORTAC110.6012W
RBVr269/27.4ROBBINSVILLE VORTAC113.8010W
MXEr076/29.5MODENA VORTAC113.2009W
OODr030/30.3WOODSTOWN VORTAC112.8010W
SBJr219/32.3SOLBERG VOR/DME112.9010W
CYNr311/34.7COYLE VORTAC113.4010W
VCNr001/34.9CEDAR LAKE VOR/DME115.2010W
DQOr053/35.5DUPONT VORTAC114.0010W
ETXr145/39.4EAST TEXAS VOR/DME110.2009W

 
NDB name  Hdg/Dist  Freq  Var  ID
AMBLER107/9.427512WING .. -. --.
LAKEHURST288/34.539611WNEL -. . .-..

Heliport Services

Runway Information

Helipad H1

Dimensions: 80 x 80 ft. / 24 x 24 m
Surface: concrete, in good condition
Runway edge lights: PERI
Latitude: 40-06.713333N
Longitude: 075-04.880000W
Elevation: 200.0 ft.
Traffic pattern: leftleft

Heliport Ownership and Management from official FAA records

Ownership: Privately-owned
Owner: HOLY REDEEMER HOSPITAL
1648 HUNTINGDON PIKE
MEADOWBROOK, PA 19046
Phone (609) 833-2244
AND MEDICAL CENTER
Manager: MICHAEL GREEN
1648 HUNTINGDON PIKE
MEADOWBROOK, PA 19046
Phone (609) 833-2244
MANAGER CELL 609-892-1266

Additional Remarks

FOR CD CTC PHILADELPHIA APCH AT 800-354-9884.

Instrument Procedures

There are no published instrument procedures at PS16.

Some nearby airports with instrument procedures:

KPNE - Northeast Philadelphia Airport (4 nm SE)
KLOM - Wings Field Airport (9 nm W)
KDYL - Doylestown Airport (13 nm N)
KVAY - South Jersey Regional Airport (15 nm SE)
KTTN - Trenton Mercer Airport (16 nm NE)
KPHL - Philadelphia International Airport (16 nm SW)
N14 - Flying W Airport (16 nm SE)
N10 - Perkiomen Valley Airport (17 nm W)
KCKZ - Pennridge Airport (19 nm NW)
 
Loc | Ops | Rwys | IFR | FBO | Links
Com | Nav | Svcs | Stats | Notes
Area around PS16 (Holy Redeemer Hospital Heliport)
 
Road maps at: MapQuest Bing Google
 
Aerial photo
No photo
 
Sectional chart

 
Airport distance calculator
Flying to Holy Redeemer Hospital Heliport? Find the distance to fly.

From to PS16

Sunrise and sunset
Times for 12-Nov-2019
 Local
(UTC-5)
 Zulu
(UTC)
Morning civil twilight06:1411:14
Sunrise06:4311:43
Sunset16:4621:46
Evening civil twilight17:1522:15

Current date and time
Zulu (UTC)  12-Nov-2019 16:02:53
Local (UTC-5)  12-Nov-2019 11:02:53
 
METAR
KPNE 
3nm SE 
121554Z 31016G21KT 10SM FEW025 OVC060 04/M02 A2995 RMK AO2 SLP143 T00391022 $
KLOM 
9nm W 
121555Z AUTO 33010G19KT 300V360 10SM OVC060 02/M03 A2995 RMK AO2 T00161033
KDYL 
13nm N 
121554Z AUTO 32014G21KT 10SM OVC070 02/M04 A2992 RMK AO2 SLP136 T00171039
KVAY 
16nm SE 
ASOS 119.325 609-267-1176
121554Z AUTO 31008G21KT 10SM SCT047 OVC060 03/M01 A2993 RMK AO2 RAE26 SLP135 P0000 T00331011
KTTN 
16nm NE 
ASOS 133.70 609-538-8690
121553Z 31014G21KT 10SM BKN022 BKN049 OVC065 02/M02 A2991 RMK AO2 RAE20UPB14E19 SLP125 P0000 T00221017
KPHL 
16nm SW 
121554Z 34012G21KT 10SM -RA OVC019 03/M01 A2995 RMK AO2 PK WND 30026/1522 SLP142 P0001 T00281011
KCKZ 
19nm NW 
121555Z AUTO 32006G16KT 10SM BKN025 00/M04 A2994 RMK AO2
TAF
KPNE 
3nm SE 
121336Z 1214/1312 31012G20KT P6SM -RA BKN020 OVC040 FM121500 32014G22KT P6SM OVC070 FM121900 33016G26KT P6SM SCT150 FM130200 33014KT P6SM SKC FM130800 32009KT P6SM SKC
KTTN 
16nm NE 
121315Z 1213/1312 31011G19KT P6SM -RA BKN025 OVC060 TEMPO 1213/1215 6SM -RA BR BKN018 FM121500 32012G19KT P6SM OVC050 FM122000 33015G25KT P6SM SCT150 FM130100 33012G20KT P6SM SKC FM130600 33010KT P6SM SKC
KPHL 
16nm SW 
121309Z 1213/1318 31013G24KT 6SM -RA BR BKN025 OVC060 TEMPO 1213/1215 5SM -RA OVC020 FM121500 32016G26KT P6SM OVC050 FM122100 33018G28KT P6SM SCT150 FM130200 33015G23KT P6SM SKC FM130800 33012KT P6SM SKC
NOTAMs
Click for the latest NOTAMs
NOTAMs are issued by the DoD/FAA and will open in a separate window not controlled by AirNav.

 

 
 

Would you like to see your business listed on this page?

 If your business provides an interesting product or service to pilots, flight crews, aircraft, or users of the Holy Redeemer Hospital Heliport, you should consider listing it here.  To start the listing process, click on the button below
 
Add a business
 

Other Pages about Holy Redeemer Hospital Heliport

Update a link
 
Copyright © AirNav, LLC. All rights reserved. Privacy Policy  Contact